»·PEaware :: ASA1701 KPDX-KMFR

ASA1701 :: KPDX-KMFR

FLIGHT INFORMATION

Flight Status: Arrived
Operator:
Alaska Airlines
More flights by this operator :: More flights under this callsign
Pilot: Jay R. (20334)
Aircraft: BOEING 737-800
(B738)
More flights by this aircraft type
Origin: KPDX Portland Intl
United States
Destination: KMFR Rogue Valley Intl-Medford
United States
More flights between these airports :: More routes between these airports
Route: +PTLD1 EUG OED
File this flight plan on PilotEdge
Remarks: RMK / POWERED BY SIMBRIEF
Altitude:
(Current/Filed)
31,000ft
Speed:
(Current/Filed)
458kts
Departed: 16-Sep-18 10:55 AM
Arrived: 16-Sep-18 11:40 AM
Distance/Time
Traveled:
194nm/0:45
Distance/Time
To Go:
Arrived

Flight Plot

Page will automatically refresh every two minutes.

Flight plan parsing failed; only flown route is shown


Map Options




Map Legend


Flown Route
Filed Route
Departure Airport
Arrival Airport
Navaid (VOR, NDB)
Fix

Horizontal Profiles

Position Reports

Time Latitude Longitude Heading Altitude Ground
Speed
16-Sep-18 10:29 45.589207 -122.598482 18 37ft 0kts
16-Sep-18 10:30 45.589207 -122.598482 18 37ft 0kts
16-Sep-18 10:31 45.589207 -122.598482 18 37ft 0kts
16-Sep-18 10:32 45.589207 -122.598482 18 37ft 0kts
16-Sep-18 10:33 45.589207 -122.598481 18 37ft 0kts
16-Sep-18 10:34 45.589207 -122.598481 18 37ft 0kts
16-Sep-18 10:35 45.589207 -122.598481 18 37ft 0kts
16-Sep-18 10:36 45.589207 -122.598481 18 37ft 0kts
16-Sep-18 10:37 45.589207 -122.598481 18 37ft 0kts
16-Sep-18 10:38 45.589207 -122.598481 18 37ft 0kts
16-Sep-18 10:39 45.589207 -122.598481 18 37ft 0kts
16-Sep-18 10:40 45.589207 -122.598481 18 37ft 0kts
16-Sep-18 10:41 45.589207 -122.598481 18 37ft 0kts
16-Sep-18 10:42 45.589207 -122.598481 18 37ft 0kts
16-Sep-18 10:43 45.589207 -122.598482 18 37ft 0kts
16-Sep-18 10:44 45.588886 -122.598679 22 37ft 2kts
16-Sep-18 10:45 45.588414 -122.598971 22 37ft 1kts
16-Sep-18 10:46 45.588383 -122.598988 19 37ft 0kts
16-Sep-18 10:47 45.588383 -122.598988 19 37ft 0kts
16-Sep-18 10:48 45.588383 -122.598988 19 37ft 0kts
16-Sep-18 10:49 45.588383 -122.598988 19 37ft 0kts
16-Sep-18 10:50 45.588384 -122.598988 19 37ft 0kts
16-Sep-18 10:51 45.587496 -122.596880 152 37ft 15kts
16-Sep-18 10:52 45.584992 -122.592217 119 37ft 16kts
16-Sep-18 10:53 45.582706 -122.586307 118 37ft 17kts
16-Sep-18 10:54 45.581495 -122.583546 166 37ft 0kts
16-Sep-18 10:55 45.581495 -122.583546 166 37ft 0kts
16-Sep-18 10:56 45.580686 -122.584266 284 37ft 4kts
16-Sep-18 10:57 45.590242 -122.608867 299 267ft 167kts
16-Sep-18 10:58 45.611622 -122.669176 300 2728ft 187kts
16-Sep-18 10:59 45.633516 -122.730987 299 4523ft 193kts
16-Sep-18 11:00 45.665742 -122.811674 298 5560ft 266kts
16-Sep-18 11:01 45.687018 -122.903765 232 7374ft 250kts
16-Sep-18 11:02 45.618932 -122.924989 191 10277ft 271kts
16-Sep-18 11:03 45.538584 -122.941424 192 12685ft 307kts
16-Sep-18 11:04 45.452639 -122.958984 193 15001ft 320kts
16-Sep-18 11:05 45.364879 -122.976818 193 16158ft 324kts
16-Sep-18 11:06 45.274807 -122.995061 193 18975ft 336kts
16-Sep-18 11:07 45.179703 -123.014280 194 21532ft 350kts
16-Sep-18 11:08 45.081919 -123.034005 194 23035ft 360kts
16-Sep-18 11:09 44.980939 -123.054256 193 25103ft 372kts
16-Sep-18 11:10 44.881584 -123.074100 193 26972ft 384kts
16-Sep-18 11:11 44.774691 -123.095351 194 28728ft 396kts
16-Sep-18 11:12 44.665442 -123.116916 194 30676ft 398kts
16-Sep-18 11:13 44.553250 -123.139102 194 31099ft 425kts
16-Sep-18 11:14 44.433472 -123.162576 193 31089ft 439kts
16-Sep-18 11:15 44.312763 -123.185991 193 30486ft 437kts
16-Sep-18 11:16 44.192083 -123.209259 193 29316ft 440kts
16-Sep-18 11:17 44.070967 -123.214673 178 27915ft 430kts
16-Sep-18 11:18 43.954769 -123.191999 177 25754ft 421kts
16-Sep-18 11:19 43.847111 -123.171117 177 23740ft 399kts
16-Sep-18 11:20 43.741043 -123.150622 177 21715ft 374kts
16-Sep-18 11:21 43.640996 -123.131444 177 19704ft 356kts
16-Sep-18 11:22 43.546134 -123.113392 177 17680ft 335kts
16-Sep-18 11:23 43.456182 -123.096379 176 15673ft 322kts
16-Sep-18 11:24 43.370252 -123.080164 176 13658ft 306kts
16-Sep-18 11:25 43.287691 -123.069880 180 11924ft 287kts
16-Sep-18 11:26 43.208950 -123.063260 180 11217ft 283kts
16-Sep-18 11:27 43.143804 -123.057805 180 10625ft 280kts
16-Sep-18 11:28 43.053811 -123.050287 179 9803ft 278kts
16-Sep-18 11:29 42.990771 -123.045004 179 9188ft 264kts
16-Sep-18 11:30 42.908525 -123.038107 179 8328ft 246kts
16-Sep-18 11:31 42.855410 -123.033659 178 7795ft 238kts
16-Sep-18 11:32 42.790894 -123.028245 178 7269ft 227kts
16-Sep-18 11:33 42.731042 -123.023206 178 7113ft 203kts
16-Sep-18 11:34 42.674498 -123.018487 178 7118ft 204kts
16-Sep-18 11:35 42.619189 -123.001656 160 6372ft 202kts
16-Sep-18 11:36 42.568503 -122.975075 159 5257ft 191kts
16-Sep-18 11:37 42.520296 -122.949651 158 4199ft 181kts
16-Sep-18 11:38 42.477346 -122.927037 158 3256ft 148kts
16-Sep-18 11:39 42.440154 -122.907540 158 2521ft 143kts
16-Sep-18 11:40 42.402923 -122.887874 159 1692ft 141kts
16-Sep-18 11:41 42.373269 -122.872385 158 1317ft 50kts
16-Sep-18 11:42 42.369242 -122.872493 261 1321ft 8kts

Navigation Log

Ident Type
Flight plan parsing failed, navigation log unavailable